Time;durP1;ratioP1;P1;durP2;ratioP2;P2;SDS_P1;SDS_P2;PMS_P1;PMS_P2;Temp;Humidity;BMP_temperature;BMP_pressure;BME280_temperature;BME280_humidity;BME280_pressure;Samples;Min_cycle;Max_cycle;Signal;HPM_P1;HPM_P2
2021/08/20 00:00:58;;;;;;;;;;;;;;;20.36;61.82;99808.19;1627354;47;20013;-84
2021/08/20 00:02:29;;;;;;;;;;;;;;;20.39;62.00;99806.94;1630583;54;19950;-82
2021/08/20 00:04:03;;;;;;;;;;;;;;;20.37;62.21;99811.72;1627381;54;20440;-78
2021/08/20 00:05:38;;;;;;;;;;;;;;;20.33;62.28;99808.63;1629502;46;19943;-82
2021/08/20 00:07:08;;;;;;;;;;;;;;;20.30;62.53;99805.50;1630166;47;20010;-84
2021/08/20 00:08:41;;;;;;;;;;;;;;;20.24;63.03;99804.47;1627102;54;19946;-82
2021/08/20 00:10:16;;;;;;;;;;;;;;;20.15;63.11;99798.47;1627517;39;20272;-80
2021/08/20 00:11:52;;;;;;;;;;;;;;;20.09;63.54;99802.88;1628071;39;20992;-79
2021/08/20 00:13:25;;;;;;;;;;;;;;;20.08;63.48;99801.19;1630311;54;19957;-79
2021/08/20 00:14:58;;;;;;;;;;;;;;;20.03;63.63;99801.00;1629791;54;19950;-82
2021/08/20 00:16:32;;;;;;;;;;;;;;;19.97;64.05;99804.56;1626595;54;19946;-81
2021/08/20 00:18:06;;;;;;;;;;;;;;;19.93;64.13;99803.34;1628959;31;20492;-81
2021/08/20 00:19:39;;;;;;;;;;;;;;;19.91;63.94;99805.41;1626388;47;19950;-81
2021/08/20 00:21:13;;;;;;;;;;;;;;;19.88;64.51;99808.56;1626099;39;20408;-80
2021/08/20 00:22:46;;;;;;;;;;;;;;;19.87;64.55;99806.88;1627318;54;19958;-81
2021/08/20 00:24:19;;;;;;;;;;;;;;;19.83;64.65;99805.63;1627678;54;20006;-82
2021/08/20 00:25:56;;;;;;;;;;;;;;;19.78;64.49;99807.06;1628567;46;19998;-82
2021/08/20 00:27:32;;;;;;;;;;;;;;;19.76;64.75;99803.72;1628121;54;19942;-81
2021/08/20 00:29:05;;;;;;;;;;;;;;;19.73;64.80;99809.59;1630778;54;19966;-77
2021/08/20 00:30:38;;;;;;;;;;;;;;;19.69;65.22;99811.06;1630666;54;20563;-78
2021/08/20 00:32:10;;;;;;;;;;;;;;;19.68;65.24;99803.97;1628765;54;19946;-80
2021/08/20 00:33:43;;;;;;;;;;;;;;;19.67;65.19;99805.00;1629840;47;19950;-79
2021/08/20 00:35:16;;;;;;;;;;;;;;;19.69;65.18;99805.63;1629283;54;19958;-80
2021/08/20 00:36:50;;;;;;;;;;;;;;;19.66;65.60;99811.47;1628307;47;19942;-79
2021/08/20 00:38:23;;;;;;;;;;;;;;;19.64;65.77;99802.72;1630746;39;20465;-81
2021/08/20 00:39:57;;;;;;;;;;;;;;;19.62;65.64;99799.38;1628335;47;19954;-79
2021/08/20 00:41:33;;;;;;;;;;;;;;;19.59;65.71;99807.94;1626562;39;20314;-82
2021/08/20 00:43:10;;;;;;;;;;;;;;;19.57;66.32;99810.88;1628059;46;20572;-79
2021/08/20 00:44:46;;;;;;;;;;;;;;;19.53;66.50;99797.94;1629889;47;19950;-78
2021/08/20 00:46:22;;;;;;;;;;;;;;;19.52;66.37;99801.69;1629792;54;19962;-79
2021/08/20 00:47:58;;;;;;;;;;;;;;;19.49;66.59;99792.94;1627659;54;19950;-81
2021/08/20 00:49:31;;;;;;;;;;;;;;;19.50;66.75;99796.50;1629907;47;19973;-78
2021/08/20 00:51:06;;;;;;;;;;;;;;;19.47;66.64;99800.44;1627759;46;19998;-81
2021/08/20 00:52:39;;;;;;;;;;;;;;;19.45;66.99;99818.81;1627840;39;20695;-82
2021/08/20 00:54:13;;;;;;;;;;;;;;;19.42;66.86;99802.94;1626971;47;20003;-83
2021/08/20 00:55:46;;;;;;;;;;;;;;;19.41;67.18;99798.56;1627460;54;20557;-83
2021/08/20 00:57:22;;;;;;;;;;;;;;;19.40;67.11;99802.31;1626763;47;19946;-81
2021/08/20 00:58:58;;;;;;;;;;;;;;;19.38;67.53;99790.84;1628041;54;19958;-80
2021/08/20 01:00:31;;;;;;;;;;;;;;;19.38;67.23;99790.03;1630645;54;20011;-78
2021/08/20 01:02:05;;;;;;;;;;;;;;;19.38;67.28;99796.25;1629660;54;19950;-80
2021/08/20 01:03:38;;;;;;;;;;;;;;;19.40;67.50;99794.19;1629972;47;20316;-80
2021/08/20 01:05:12;;;;;;;;;;;;;;;19.40;67.36;99788.75;1628161;46;20046;-82
2021/08/20 01:06:45;;;;;;;;;;;;;;;19.40;67.56;99793.38;1628145;54;20037;-82
2021/08/20 01:08:19;;;;;;;;;;;;;;;19.40;67.72;99794.19;1629533;54;19946;-80
2021/08/20 01:09:53;;;;;;;;;;;;;;;19.39;67.48;99789.81;1626578;54;19947;-79
2021/08/20 01:11:28;;;;;;;;;;;;;;;19.38;67.97;99792.72;1627705;54;20057;-83
2021/08/20 01:13:01;;;;;;;;;;;;;;;19.37;67.89;99789.16;1628384;47;20011;-80
2021/08/20 01:14:37;;;;;;;;;;;;;;;19.38;67.96;99788.13;1627003;47;20049;-81
2021/08/20 01:16:08;;;;;;;;;;;;;;;19.38;67.72;99780.00;1628987;39;20360;-82
2021/08/20 01:17:43;;;;;;;;;;;;;;;19.38;67.74;99785.41;1627173;46;19973;-80
2021/08/20 01:19:14;;;;;;;;;;;;;;;19.35;67.76;99783.16;1627622;46;19952;-78
2021/08/20 01:20:47;;;;;;;;;;;;;;;19.32;68.04;99784.38;1628921;47;20603;-79
2021/08/20 01:22:21;;;;;;;;;;;;;;;19.29;67.96;99783.97;1629382;47;20026;-79
2021/08/20 01:23:54;;;;;;;;;;;;;;;19.28;68.17;99787.72;1629628;39;20869;-80
2021/08/20 01:25:34;;;;;;;;;;;;;;;19.28;68.19;99779.59;1627856;47;20007;-83
2021/08/20 01:27:07;;;;;;;;;;;;;;;19.26;68.27;99781.69;1628726;47;19962;-82
2021/08/20 01:28:41;;;;;;;;;;;;;;;19.26;68.36;99784.41;1627594;47;20002;-82
2021/08/20 01:30:15;;;;;;;;;;;;;;;19.25;68.70;99783.56;1627719;47;20002;-83
2021/08/20 01:31:48;;;;;;;;;;;;;;;19.27;68.49;99786.06;1627559;54;19994;-82
2021/08/20 01:33:21;;;;;;;;;;;;;;;19.25;68.68;99785.44;1627565;47;20006;-84
2021/08/20 01:34:55;;;;;;;;;;;;;;;19.22;68.64;99786.69;1629503;47;19958;-79
2021/08/20 01:36:28;;;;;;;;;;;;;;;19.21;68.75;99784.19;1628470;54;19947;-79
2021/08/20 01:38:02;;;;;;;;;;;;;;;19.18;68.84;99786.25;1628930;39;20394;-82
2021/08/20 01:39:32;;;;;;;;;;;;;;;19.16;69.42;99782.09;1627438;54;19954;-79
2021/08/20 01:41:08;;;;;;;;;;;;;;;19.12;69.21;99784.38;1628838;47;20624;-78
2021/08/20 01:42:42;;;;;;;;;;;;;;;19.08;69.64;99796.66;1629802;54;20006;-79
2021/08/20 01:44:15;;;;;;;;;;;;;;;19.07;69.71;99789.59;1627972;47;20229;-81
2021/08/20 01:45:48;;;;;;;;;;;;;;;19.06;69.61;99785.22;1628057;47;19965;-82
2021/08/20 01:47:21;;;;;;;;;;;;;;;19.08;69.43;99791.25;1627891;47;19950;-81
2021/08/20 01:48:56;;;;;;;;;;;;;;;19.11;69.56;99790.84;1628107;54;20034;-82
2021/08/20 01:50:29;;;;;;;;;;;;;;;19.12;69.21;99797.94;1628945;47;19946;-83
2021/08/20 01:52:02;;;;;;;;;;;;;;;19.13;69.23;99787.91;1629173;47;19981;-79
2021/08/20 01:53:33;;;;;;;;;;;;;;;19.11;69.36;99788.13;1629150;47;19973;-79
2021/08/20 01:55:07;;;;;;;;;;;;;;;19.09;69.30;99778.56;1629394;47;19946;-80
2021/08/20 01:56:43;;;;;;;;;;;;;;;19.07;69.60;99786.91;1628825;54;20001;-79
2021/08/20 01:58:17;;;;;;;;;;;;;;;19.06;69.57;99790.63;1629602;47;19954;-79
2021/08/20 01:59:50;;;;;;;;;;;;;;;19.02;69.74;99787.50;1629934;54;20027;-80
2021/08/20 02:01:24;;;;;;;;;;;;;;;18.99;69.70;99792.47;1630121;54;19962;-81
2021/08/20 02:02:57;;;;;;;;;;;;;;;18.98;70.12;99786.25;1630584;47;19950;-78
2021/08/20 02:04:31;;;;;;;;;;;;;;;18.97;70.06;99798.13;1631367;31;20530;-84
2021/08/20 02:06:04;;;;;;;;;;;;;;;18.98;69.76;99790.84;1627601;54;19990;-83
2021/08/20 02:07:40;;;;;;;;;;;;;;;18.98;69.91;99788.94;1627479;54;19981;-84
2021/08/20 02:09:13;;;;;;;;;;;;;;;18.98;69.96;99790.84;1628999;47;19973;-79
2021/08/20 02:10:47;;;;;;;;;;;;;;;19.00;70.02;99783.31;1628387;46;20018;-80
2021/08/20 02:12:22;;;;;;;;;;;;;;;19.01;69.63;99790.41;1628021;47;20010;-80
2021/08/20 02:13:56;;;;;;;;;;;;;;;19.02;70.06;99786.66;1629981;54;19962;-78
2021/08/20 02:15:29;;;;;;;;;;;;;;;19.00;69.73;99783.31;1629329;47;19971;-84
2021/08/20 02:17:08;;;;;;;;;;;;;;;18.99;69.98;99787.06;1628768;54;19954;-83
2021/08/20 02:18:41;;;;;;;;;;;;;;;18.99;70.01;99787.06;1625897;47;19947;-82
2021/08/20 02:20:15;;;;;;;;;;;;;;;18.99;70.20;99789.78;1629656;46;19946;-81
2021/08/20 02:21:48;;;;;;;;;;;;;;;18.96;70.11;99785.59;1628921;54;19962;-80
2021/08/20 02:23:21;;;;;;;;;;;;;;;18.94;70.18;99787.69;1633546;31;20591;-80
2021/08/20 02:24:55;;;;;;;;;;;;;;;18.92;70.29;99797.03;1628273;54;19973;-83
2021/08/20 02:26:31;;;;;;;;;;;;;;;18.88;70.29;99788.50;1625906;47;19953;-80
2021/08/20 02:28:07;;;;;;;;;;;;;;;18.88;70.54;99795.78;1630267;54;19942;-79
2021/08/20 02:29:43;;;;;;;;;;;;;;;18.86;70.53;99799.53;1629002;39;20444;-83
2021/08/20 02:31:16;;;;;;;;;;;;;;;18.84;70.72;99796.19;1628101;54;19951;-78
2021/08/20 02:32:50;;;;;;;;;;;;;;;18.83;70.85;99797.22;1630109;46;19958;-78
2021/08/20 02:34:23;;;;;;;;;;;;;;;18.83;70.92;99791.81;1630287;54;20461;-77
2021/08/20 02:35:56;;;;;;;;;;;;;;;18.84;70.69;99792.66;1631180;46;19973;-78
2021/08/20 02:37:29;;;;;;;;;;;;;;;18.83;70.96;99801.81;1631095;47;19943;-81
2021/08/20 02:39:03;;;;;;;;;;;;;;;18.81;70.96;99796.59;1630587;54;19962;-78
2021/08/20 02:40:37;;;;;;;;;;;;;;;18.81;71.09;99793.06;1630055;47;19969;-78
2021/08/20 02:42:10;;;;;;;;;;;;;;;18.81;70.82;99796.59;1631114;54;19951;-80
2021/08/20 02:43:46;;;;;;;;;;;;;;;18.82;70.78;99797.44;1630837;54;19950;-78
2021/08/20 02:45:20;;;;;;;;;;;;;;;18.81;71.01;99791.19;1630801;46;19954;-79
2021/08/20 02:46:53;;;;;;;;;;;;;;;18.81;70.91;99790.34;1630271;54;19950;-83
2021/08/20 02:48:27;;;;;;;;;;;;;;;18.79;71.27;99800.56;1630860;54;19942;-79
2021/08/20 02:50:00;;;;;;;;;;;;;;;18.80;71.31;99789.50;1628848;47;19954;-82
2021/08/20 02:51:33;;;;;;;;;;;;;;;18.81;70.95;99790.34;1629257;54;19976;-82
2021/08/20 02:53:06;;;;;;;;;;;;;;;18.82;71.20;99792.03;1629591;54;19973;-78
2021/08/20 02:54:40;;;;;;;;;;;;;;;18.85;70.99;99789.75;1632135;31;20476;-85
2021/08/20 02:56:13;;;;;;;;;;;;;;;18.86;70.75;99791.41;1627977;47;20002;-82
2021/08/20 02:57:47;;;;;;;;;;;;;;;18.86;70.68;99794.13;1629166;54;19973;-78
2021/08/20 02:59:23;;;;;;;;;;;;;;;18.90;70.89;99793.69;1629972;54;19950;-84
2021/08/20 03:00:56;;;;;;;;;;;;;;;18.89;70.62;99786.63;1629216;46;20014;-83
2021/08/20 03:02:27;;;;;;;;;;;;;;;18.89;70.72;99786.63;1630557;54;19954;-82
2021/08/20 03:04:00;;;;;;;;;;;;;;;18.86;70.69;99794.13;1630026;54;20307;-79
2021/08/20 03:05:33;;;;;;;;;;;;;;;18.85;70.58;99787.03;1630280;47;19966;-80
2021/08/20 03:07:07;;;;;;;;;;;;;;;18.85;70.82;99789.75;1630145;47;19977;-79
2021/08/20 03:08:40;;;;;;;;;;;;;;;18.86;70.82;99786.00;1631202;47;19950;-83
2021/08/20 03:10:11;;;;;;;;;;;;;;;18.86;70.73;99787.84;1630516;47;19985;-78
2021/08/20 03:11:44;;;;;;;;;;;;;;;18.85;70.76;99787.03;1631079;47;19938;-77
2021/08/20 03:13:17;;;;;;;;;;;;;;;18.86;70.83;99788.69;1630731;54;19946;-79
2021/08/20 03:14:53;;;;;;;;;;;;;;;18.87;70.71;99784.09;1634210;31;20530;-79
2021/08/20 03:16:26;;;;;;;;;;;;;;;18.90;70.45;99788.28;1630892;47;20620;-79
2021/08/20 03:17:59;;;;;;;;;;;;;;;18.93;70.30;99775.22;1630823;47;19976;-78
2021/08/20 03:19:33;;;;;;;;;;;;;;;18.91;70.29;99788.09;1639914;31;20696;-79
2021/08/20 03:21:06;;;;;;;;;;;;;;;18.88;70.48;99780.38;1630903;47;19974;-78
2021/08/20 03:22:39;;;;;;;;;;;;;;;18.86;70.49;99783.28;1631243;47;20614;-78
2021/08/20 03:24:13;;;;;;;;;;;;;;;18.88;70.70;99782.25;1630188;39;20095;-82
2021/08/20 03:25:47;;;;;;;;;;;;;;;18.86;70.65;99785.16;1628277;54;20010;-81
2021/08/20 03:27:20;;;;;;;;;;;;;;;18.85;70.59;99772.63;1628096;54;19950;-80
2021/08/20 03:29:02;;;;;;;;;;;;;;;18.86;70.73;99782.44;1628054;54;19954;-84
2021/08/20 03:30:45;;;;;;;;;;;;;;;18.87;70.35;99778.69;1630255;54;19938;-79
2021/08/20 03:32:19;;;;;;;;;;;;;;;18.88;70.31;99779.53;1630727;54;19942;-78
2021/08/20 03:33:54;;;;;;;;;;;;;;;18.85;70.74;99787.03;1631085;47;19973;-79
2021/08/20 03:35:27;;;;;;;;;;;;;;;18.83;70.58;99791.81;1633059;39;20586;-80
2021/08/20 03:37:01;;;;;;;;;;;;;;;18.83;70.55;99789.09;1630612;46;19958;-79
2021/08/20 03:38:31;;;;;;;;;;;;;;;18.84;70.54;99790.78;1629513;39;20745;-80
2021/08/20 03:40:05;;;;;;;;;;;;;;;18.83;70.68;99794.53;1627247;47;19950;-80
2021/08/20 03:41:38;;;;;;;;;;;;;;;18.82;70.55;99783.91;1627074;47;20045;-81
2021/08/20 03:43:11;;;;;;;;;;;;;;;18.84;70.45;99789.97;1628120;54;20006;-83
2021/08/20 03:44:44;;;;;;;;;;;;;;;18.82;70.53;99792.03;1628360;54;19986;-80
2021/08/20 03:46:20;;;;;;;;;;;;;;;18.81;70.56;99796.59;1628306;54;19958;-83
2021/08/20 03:47:53;;;;;;;;;;;;;;;18.83;70.69;99791.81;1628178;54;19958;-81
2021/08/20 03:49:27;;;;;;;;;;;;;;;18.84;70.69;99789.97;1627654;54;20006;-82
2021/08/20 03:51:00;;;;;;;;;;;;;;;18.84;70.59;99795.38;1628320;47;20545;-83
2021/08/20 03:52:33;;;;;;;;;;;;;;;18.83;70.97;99799.94;1628003;54;19958;-81
2021/08/20 03:54:06;;;;;;;;;;;;;;;18.83;70.80;99796.41;1628967;39;20543;-80
2021/08/20 03:55:39;;;;;;;;;;;;;;;18.82;70.98;99797.44;1627903;47;19966;-83
2021/08/20 03:57:13;;;;;;;;;;;;;;;18.82;70.96;99800.97;1628286;54;20006;-81
2021/08/20 03:58:46;;;;;;;;;;;;;;;18.81;70.84;99803.91;1630017;39;20693;-83
2021/08/20 04:00:20;;;;;;;;;;;;;;;18.83;71.10;99805.34;1629703;54;19969;-81
2021/08/20 04:01:56;;;;;;;;;;;;;;;18.84;71.02;99807.03;1628882;47;19946;-81
2021/08/20 04:03:29;;;;;;;;;;;;;;;18.86;70.81;99807.66;1629059;54;19973;-82
2021/08/20 04:05:03;;;;;;;;;;;;;;;18.85;70.92;99808.69;1629061;47;19954;-79
2021/08/20 04:06:34;;;;;;;;;;;;;;;18.84;70.71;99807.03;1630870;39;20664;-79
2021/08/20 04:08:10;;;;;;;;;;;;;;;18.82;70.90;99814.50;1630338;47;19951;-78
2021/08/20 04:09:43;;;;;;;;;;;;;;;18.81;71.14;99806.59;1630317;54;19981;-81
2021/08/20 04:11:14;;;;;;;;;;;;;;;18.81;71.08;99806.59;1629246;54;20026;-83
2021/08/20 04:12:48;;;;;;;;;;;;;;;18.82;71.29;99811.81;1629064;54;19946;-84
2021/08/20 04:14:21;;;;;;;;;;;;;;;18.85;70.94;99806.00;1630140;47;19993;-79
2021/08/20 04:15:55;;;;;;;;;;;;;;;18.87;71.09;99808.47;1630904;31;20558;-79
2021/08/20 04:17:31;;;;;;;;;;;;;;;18.85;71.09;99800.56;1630217;54;19942;-79
2021/08/20 04:19:04;;;;;;;;;;;;;;;18.86;71.16;99804.94;1630133;47;19973;-78
2021/08/20 04:20:37;;;;;;;;;;;;;;;18.85;71.16;99813.25;1628988;47;19986;-83
2021/08/20 04:22:10;;;;;;;;;;;;;;;18.81;70.99;99812.84;1628845;54;20466;-84
2021/08/20 04:23:44;;;;;;;;;;;;;;;18.79;70.99;99812.22;1626720;47;20006;-84
2021/08/20 04:25:17;;;;;;;;;;;;;;;18.77;71.22;99822.44;1627702;47;19998;-83
2021/08/20 04:26:50;;;;;;;;;;;;;;;18.77;71.19;99822.44;1627370;47;20534;-81
2021/08/20 04:28:21;;;;;;;;;;;;;;;18.77;71.43;99816.16;1627444;54;20010;-82
2021/08/20 04:29:54;;;;;;;;;;;;;;;18.77;71.30;99822.44;1628241;54;19957;-81
2021/08/20 04:31:28;;;;;;;;;;;;;;;18.79;71.29;99816.78;1629767;54;19950;-78
2021/08/20 04:33:03;;;;;;;;;;;;;;;18.82;71.10;99822.63;1630465;47;20717;-78
2021/08/20 04:34:37;;;;;;;;;;;;;;;18.84;71.30;99823.28;1628895;47;19954;-81
2021/08/20 04:36:10;;;;;;;;;;;;;;;18.88;70.87;99828.28;1630258;54;19981;-79
2021/08/20 04:37:43;;;;;;;;;;;;;;;18.85;71.22;99822.22;1629391;46;19976;-79
2021/08/20 04:39:17;;;;;;;;;;;;;;;18.82;71.26;99829.94;1630237;54;19965;-80
2021/08/20 04:40:50;;;;;;;;;;;;;;;18.77;71.33;99817.00;1630142;54;19958;-77
2021/08/20 04:42:23;;;;;;;;;;;;;;;18.76;71.49;99830.72;1630292;54;20034;-77
2021/08/20 04:43:57;;;;;;;;;;;;;;;18.73;71.22;99821.16;1630526;46;19943;-78
2021/08/20 04:45:30;;;;;;;;;;;;;;;18.73;71.29;99820.34;1630369;54;19974;-77
2021/08/20 04:47:03;;;;;;;;;;;;;;;18.69;71.45;99828.03;1630751;54;19962;-77
2021/08/20 04:48:39;;;;;;;;;;;;;;;18.68;71.82;99824.47;1630046;47;20002;-78
2021/08/20 04:50:13;;;;;;;;;;;;;;;18.67;71.88;99824.69;1630837;54;19954;-78
2021/08/20 04:51:46;;;;;;;;;;;;;;;18.67;71.90;99824.69;1629539;47;19961;-83
2021/08/20 04:53:20;;;;;;;;;;;;;;;18.66;71.85;99823.84;1630881;54;19966;-78
2021/08/20 04:54:53;;;;;;;;;;;;;;;18.66;71.90;99831.94;1630702;54;19965;-79
2021/08/20 04:56:26;;;;;;;;;;;;;;;18.66;72.08;99826.53;1630756;47;19973;-79
2021/08/20 04:57:57;;;;;;;;;;;;;;;18.67;71.66;99827.38;1630629;47;19977;-79
2021/08/20 04:59:30;;;;;;;;;;;;;;;18.67;71.89;99832.81;1630176;46;19943;-81
2021/08/20 05:01:04;;;;;;;;;;;;;;;18.67;71.97;99832.81;1629467;54;19954;-79
2021/08/20 05:02:38;;;;;;;;;;;;;;;18.66;71.87;99828.44;1630497;46;20412;-79
2021/08/20 05:04:14;;;;;;;;;;;;;;;18.64;72.05;99833.19;1631067;47;20026;-79
2021/08/20 05:05:48;;;;;;;;;;;;;;;18.62;72.04;99837.97;1630295;47;19943;-83
2021/08/20 05:07:21;;;;;;;;;;;;;;;18.62;72.03;99829.84;1629107;47;19958;-82
2021/08/20 05:08:54;;;;;;;;;;;;;;;18.64;71.88;99838.63;1628303;47;19950;-82
2021/08/20 05:10:29;;;;;;;;;;;;;;;18.66;72.00;99845.50;1629301;39;20773;-81
2021/08/20 05:12:02;;;;;;;;;;;;;;;18.67;71.80;99838.22;1627635;54;20011;-81
2021/08/20 05:13:37;;;;;;;;;;;;;;;18.69;71.99;99847.81;1628403;39;20742;-83
2021/08/20 05:15:11;;;;;;;;;;;;;;;18.74;71.72;99843.66;1627913;47;19962;-82
2021/08/20 05:16:47;;;;;;;;;;;;;;;18.75;71.67;99857.00;1628043;47;20034;-83
2021/08/20 05:18:21;;;;;;;;;;;;;;;18.74;71.72;99849.91;1627701;54;19947;-82
2021/08/20 05:19:56;;;;;;;;;;;;;;;18.73;71.74;99848.22;1627528;54;20026;-81
2021/08/20 05:21:30;;;;;;;;;;;;;;;18.74;71.73;99859.91;1630068;54;20038;-81
2021/08/20 05:23:03;;;;;;;;;;;;;;;18.75;71.90;99854.28;1628217;47;19926;-80
2021/08/20 05:24:36;;;;;;;;;;;;;;;18.71;71.84;99855.72;1628315;47;20015;-79
2021/08/20 05:26:10;;;;;;;;;;;;;;;18.70;72.03;99854.06;1630046;54;19951;-83
2021/08/20 05:27:43;;;;;;;;;;;;;;;18.70;71.86;99854.06;1627889;54;19954;-84
2021/08/20 05:29:17;;;;;;;;;;;;;;;18.73;72.04;99864.47;1629671;31;20653;-78
2021/08/20 05:30:51;;;;;;;;;;;;;;;18.76;72.09;99869.50;1629057;47;19966;-81
2021/08/20 05:32:24;;;;;;;;;;;;;;;18.75;71.70;99867.81;1629491;47;19943;-79
2021/08/20 05:33:57;;;;;;;;;;;;;;;18.76;72.00;99874.06;1627972;47;20009;-80
2021/08/20 05:35:34;;;;;;;;;;;;;;;18.77;71.97;99876.56;1629328;47;19951;-78
2021/08/20 05:37:07;;;;;;;;;;;;;;;18.78;71.64;99872.84;1625614;47;19950;-80
2021/08/20 05:38:41;;;;;;;;;;;;;;;18.75;71.92;99873.22;1626355;47;19957;-83
2021/08/20 05:40:15;;;;;;;;;;;;;;;18.70;71.88;99871.13;1626660;47;20062;-82
2021/08/20 05:41:48;;;;;;;;;;;;;;;18.70;71.78;99876.56;1626827;54;19950;-83
2021/08/20 05:43:21;;;;;;;;;;;;;;;18.71;72.05;99871.94;1629677;39;20434;-83
2021/08/20 05:44:55;;;;;;;;;;;;;;;18.71;72.02;99880.06;1626724;47;20005;-84
2021/08/20 05:46:29;;;;;;;;;;;;;;;18.72;71.80;99884.47;1626489;52;19956;-83
2021/08/20 05:48:02;;;;;;;;;;;;;;;18.75;71.82;99885.94;1626585;47;20559;-82
2021/08/20 05:49:35;;;;;;;;;;;;;;;18.76;72.07;99887.59;1626825;47;19950;-86
2021/08/20 05:51:11;;;;;;;;;;;;;;;18.73;71.82;99883.41;1626685;54;19981;-83
2021/08/20 05:52:45;;;;;;;;;;;;;;;18.74;72.25;99889.69;1627146;54;19974;-82
2021/08/20 05:54:20;;;;;;;;;;;;;;;18.79;72.09;99884.50;1627198;54;20002;-82
2021/08/20 05:55:53;;;;;;;;;;;;;;;18.84;71.70;99888.25;1627009;54;20038;-81
2021/08/20 05:57:27;;;;;;;;;;;;;;;18.92;71.64;99886.41;1627233;46;20006;-84
2021/08/20 05:59:00;;;;;;;;;;;;;;;19.00;71.34;99886.25;1628085;46;20015;-81
2021/08/20 06:00:33;;;;;;;;;;;;;;;19.04;71.47;99883.97;1629260;39;20293;-85
2021/08/20 06:02:04;;;;;;;;;;;;;;;19.05;71.13;99886.50;1627988;54;19989;-84
2021/08/20 06:03:37;;;;;;;;;;;;;;;19.02;71.41;99887.75;1627730;47;19950;-87
2021/08/20 06:05:11;;;;;;;;;;;;;;;19.01;71.39;99888.78;1627211;54;19999;-83
2021/08/20 06:06:47;;;;;;;;;;;;;;;19.04;71.34;99894.78;1627988;46;20045;-82
2021/08/20 06:08:20;;;;;;;;;;;;;;;19.10;71.54;99902.94;1628331;39;20323;-81
2021/08/20 06:09:54;;;;;;;;;;;;;;;19.17;71.30;99906.53;1628523;47;19973;-81
2021/08/20 06:11:27;;;;;;;;;;;;;;;19.11;71.36;99901.91;1629751;54;19958;-82
2021/08/20 06:13:00;;;;;;;;;;;;;;;19.06;71.45;99904.41;1626633;47;20031;-83
2021/08/20 06:14:34;;;;;;;;;;;;;;;19.02;71.56;99904.00;1628588;46;19962;-85
2021/08/20 06:16:08;;;;;;;;;;;;;;;18.98;71.75;99904.59;1629631;54;19943;-84
2021/08/20 06:17:42;;;;;;;;;;;;;;;18.95;71.64;99905.00;1629287;47;20034;-84
2021/08/20 06:19:15;;;;;;;;;;;;;;;18.97;71.59;99902.94;1627987;54;20014;-84
2021/08/20 06:20:49;;;;;;;;;;;;;;;18.95;72.00;99913.94;1627981;54;19958;-84
2021/08/20 06:22:25;;;;;;;;;;;;;;;18.93;71.66;99907.91;1628242;47;19962;-82
2021/08/20 06:23:58;;;;;;;;;;;;;;;18.94;71.71;99906.03;1628194;54;19950;-82
2021/08/20 06:25:31;;;;;;;;;;;;;;;18.95;71.91;99905.00;1628491;54;20054;-79
2021/08/20 06:27:05;;;;;;;;;;;;;;;18.97;71.88;99903.75;1629608;54;19958;-79
2021/08/20 06:28:38;;;;;;;;;;;;;;;18.96;71.96;99904.78;1628918;47;22257;-80
2021/08/20 06:30:12;;;;;;;;;;;;;;;18.94;71.63;99908.75;1629088;46;19947;-79
2021/08/20 06:31:45;;;;;;;;;;;;;;;18.95;71.92;99910.41;1630176;54;20266;-80
2021/08/20 06:33:18;;;;;;;;;;;;;;;18.98;71.77;99904.59;1628988;54;19942;-79
2021/08/20 06:34:52;;;;;;;;;;;;;;;19.00;71.70;99913.34;1630282;54;19955;-80
2021/08/20 06:36:25;;;;;;;;;;;;;;;19.04;71.44;99917.31;1629436;54;20528;-80
2021/08/20 06:38:01;;;;;;;;;;;;;;;19.06;71.69;99906.28;1628973;54;19962;-80
2021/08/20 06:39:34;;;;;;;;;;;;;;;19.05;71.25;99905.44;1628118;54;20006;-82
2021/08/20 06:41:07;;;;;;;;;;;;;;;19.07;71.35;99913.34;1629522;39;20457;-80
2021/08/20 06:42:40;;;;;;;;;;;;;;;19.12;71.35;99905.47;1629405;54;19981;-84
2021/08/20 06:44:14;;;;;;;;;;;;;;;19.16;70.80;99902.16;1628055;47;19998;-84
2021/08/20 06:45:47;;;;;;;;;;;;;;;19.19;71.07;99906.31;1628335;54;20369;-81
2021/08/20 06:47:20;;;;;;;;;;;;;;;19.23;70.56;99904.84;1627341;47;19950;-83
2021/08/20 06:48:54;;;;;;;;;;;;;;;19.28;70.50;99910.50;1627090;54;19947;-82
2021/08/20 06:50:27;;;;;;;;;;;;;;;19.35;70.14;99899.69;1628696;54;19950;-80
2021/08/20 06:52:00;;;;;;;;;;;;;;;19.38;69.94;99904.66;1627781;47;19958;-83
2021/08/20 06:53:36;;;;;;;;;;;;;;;19.43;70.07;99907.63;1627536;54;20010;-80
2021/08/20 06:55:10;;;;;;;;;;;;;;;19.47;69.72;99903.44;1628129;54;20488;-82
2021/08/20 06:56:43;;;;;;;;;;;;;;;19.56;69.53;99895.94;1629728;39;20491;-79
2021/08/20 06:58:16;;;;;;;;;;;;;;;19.65;69.23;99896.56;1627744;47;20379;-81
2021/08/20 06:59:50;;;;;;;;;;;;;;;19.74;68.98;99903.44;1628254;39;20396;-81
2021/08/20 07:01:23;;;;;;;;;;;;;;;19.80;68.38;99899.91;1627745;47;20002;-83
2021/08/20 07:02:56;;;;;;;;;;;;;;;19.88;68.25;99890.78;1627002;47;20019;-82
2021/08/20 07:04:30;;;;;;;;;;;;;;;19.96;67.96;99900.56;1627600;54;19967;-83
2021/08/20 07:06:03;;;;;;;;;;;;;;;20.02;67.50;99904.31;1630271;54;19954;-80
2021/08/20 07:07:36;;;;;;;;;;;;;;;20.03;67.35;99897.84;1629850;54;19954;-80
2021/08/20 07:09:12;;;;;;;;;;;;;;;20.09;67.41;99903.25;1628708;31;20389;-83
2021/08/20 07:10:45;;;;;;;;;;;;;;;20.14;66.95;99901.78;1626134;54;19956;-82
2021/08/20 07:12:19;;;;;;;;;;;;;;;20.15;66.84;99901.59;1628127;47;19981;-84
2021/08/20 07:13:52;;;;;;;;;;;;;;;20.15;66.89;99903.44;1628786;47;20388;-82
2021/08/20 07:15:25;;;;;;;;;;;;;;;20.25;66.81;99904.69;1629997;54;19938;-80
2021/08/20 07:16:59;;;;;;;;;;;;;;;20.37;66.52;99901.31;1630845;46;19974;-83
2021/08/20 07:18:33;;;;;;;;;;;;;;;20.45;66.26;99900.25;1629094;54;19946;-84
2021/08/20 07:20:07;;;;;;;;;;;;;;;20.57;66.03;99895.84;1630105;54;19954;-82
2021/08/20 07:21:41;;;;;;;;;;;;;;;20.63;65.85;99888.72;1628001;54;20533;-83
2021/08/20 07:23:14;;;;;;;;;;;;;;;20.71;65.33;99896.63;1627434;54;20036;-80
2021/08/20 07:24:52;;;;;;;;;;;;;;;20.71;64.99;99896.63;1628634;54;19969;-83
2021/08/20 07:26:25;;;;;;;;;;;;;;;20.70;65.30;99895.75;1627691;47;20467;-79
2021/08/20 07:27:58;;;;;;;;;;;;;;;20.71;64.92;99899.34;1628032;47;19977;-83
2021/08/20 07:29:31;;;;;;;;;;;;;;;20.82;65.02;99895.13;1627599;54;20456;-78
2021/08/20 07:31:05;;;;;;;;;;;;;;;20.92;64.31;99894.69;1627367;47;19953;-81
2021/08/20 07:32:38;;;;;;;;;;;;;;;21.04;64.36;99903.78;1628445;47;19942;-78
2021/08/20 07:34:12;;;;;;;;;;;;;;;21.25;63.80;99891.78;1630335;47;19963;-79
2021/08/20 07:35:45;;;;;;;;;;;;;;;21.43;63.22;99901.88;1629474;54;19985;-79
2021/08/20 07:37:18;;;;;;;;;;;;;;;21.47;63.09;99899.56;1629995;47;20011;-80
2021/08/20 07:38:51;;;;;;;;;;;;;;;21.57;62.61;99896.34;1629367;46;19962;-81
2021/08/20 07:40:27;;;;;;;;;;;;;;;21.70;62.06;99898.16;1626623;47;19958;-83
2021/08/20 07:42:01;;;;;;;;;;;;;;;21.79;61.88;99899.56;1630198;47;19954;-78
2021/08/20 07:43:34;;;;;;;;;;;;;;;22.06;61.53;99891.13;1630494;54;19946;-78
2021/08/20 07:45:08;;;;;;;;;;;;;;;22.31;60.76;99892.97;1630794;54;19942;-78
2021/08/20 07:46:41;;;;;;;;;;;;;;;22.39;59.96;99890.78;1630331;54;19958;-78
2021/08/20 07:48:17;;;;;;;;;;;;;;;22.51;59.72;99893.59;1630392;47;20356;-81
2021/08/20 07:49:50;;;;;;;;;;;;;;;22.59;59.16;99885.13;1629631;47;20073;-79
2021/08/20 07:51:23;;;;;;;;;;;;;;;22.67;59.11;99894.06;1629975;47;19994;-80
2021/08/20 07:52:56;;;;;;;;;;;;;;;22.67;59.24;99894.06;1630906;39;20046;-80
2021/08/20 07:54:30;;;;;;;;;;;;;;;22.56;59.42;99895.66;1630208;54;19972;-82
2021/08/20 07:56:06;;;;;;;;;;;;;;;22.63;59.07;99890.94;1631074;54;20646;-80
2021/08/20 07:57:48;;;;;;;;;;;;;;;22.67;59.13;99902.25;1630189;39;20705;-79
2021/08/20 07:59:22;;;;;;;;;;;;;;;22.79;58.89;99899.59;1630402;46;20620;-80
2021/08/20 08:00:55;;;;;;;;;;;;;;;22.95;58.24;99898.13;1629651;47;20042;-79
2021/08/20 08:02:28;;;;;;;;;;;;;;;23.14;58.06;99896.16;1630309;54;19990;-78
2021/08/20 08:04:01;;;;;;;;;;;;;;;23.26;57.59;99901.69;1629700;47;20026;-80
2021/08/20 08:05:35;;;;;;;;;;;;;;;23.41;56.74;99893.06;1630266;47;20095;-78
2021/08/20 08:07:08;;;;;;;;;;;;;;;23.50;56.47;99894.41;1629890;47;19950;-80
2021/08/20 08:08:41;;;;;;;;;;;;;;;23.60;56.33;99893.84;1630509;54;19973;-79